»·PEaware :: ASA233 KFLG-KSNA

ASA233 :: KFLG-KSNA

FLIGHT INFORMATION

Flight Status: Arrived
Operator:
Alaska Airlines
More flights by this operator :: More flights under this callsign
Pilot: Max W. (2591)
Aircraft: BOEING 727-200
(B722)
More flights by this aircraft type
Origin: KFLG Flagstaff Pulliam
United States
Destination: KSNA John Wayne-Orange Co
United States
More flights between these airports :: More routes between these airports
Route: +FLG1 OATES PGS J64 HEC KAYOH7
File this flight plan on PilotEdge
Remarks:
Altitude:
(Current/Filed)
30,000ft
Speed:
(Current/Filed)
450kts
Departed: 01-Sep-18 11:09 AM
Arrived: 01-Sep-18 12:10 PM
Distance/Time
Traveled:
319nm/1:01
Distance/Time
To Go:
Arrived

Flight Plot

Page will automatically refresh every two minutes.

Flight plan parsing failed; only flown route is shown


Map Options




Map Legend


Flown Route
Filed Route
Departure Airport
Arrival Airport
Navaid (VOR, NDB)
Fix

Horizontal Profiles

Position Reports

Time Latitude Longitude Heading Altitude Ground
Speed
01-Sep-18 11:02 35.138420 -111.674669 350 7023ft 0kts
01-Sep-18 11:03 35.138441 -111.674673 350 7023ft 0kts
01-Sep-18 11:04 35.138288 -111.674327 175 7023ft 0kts
01-Sep-18 11:05 35.137680 -111.673944 225 7023ft 8kts
01-Sep-18 11:07 35.142792 -111.668348 41 7023ft 22kts
01-Sep-18 11:08 35.147443 -111.663438 42 7023ft 21kts
01-Sep-18 11:09 35.149052 -111.660045 203 7023ft 7kts
01-Sep-18 11:10 35.129037 -111.681877 216 8052ft 159kts
01-Sep-18 11:11 35.081363 -111.679307 188 10056ft 215kts
01-Sep-18 11:12 35.034539 -111.713568 272 12838ft 234kts
01-Sep-18 11:13 35.061005 -111.790345 287 16195ft 236kts
01-Sep-18 11:14 35.091349 -111.882792 290 18013ft 323kts
01-Sep-18 11:15 35.127190 -111.991178 290 20825ft 355kts
01-Sep-18 11:16 35.164801 -112.105285 290 23716ft 369kts
01-Sep-18 11:17 35.203595 -112.223644 290 26079ft 382kts
01-Sep-18 11:18 35.243182 -112.345311 290 28149ft 393kts
01-Sep-18 11:19 35.284156 -112.470812 290 29988ft 403kts
01-Sep-18 11:20 35.327482 -112.605307 290 30209ft 449kts
01-Sep-18 11:21 35.374237 -112.752604 290 30204ft 479kts
01-Sep-18 11:22 35.422988 -112.905209 290 30201ft 478kts
01-Sep-18 11:23 35.469308 -113.055390 285 30196ft 466kts
01-Sep-18 11:24 35.452960 -113.208489 267 30074ft 459kts
01-Sep-18 11:25 35.433631 -113.363970 259 29998ft 466kts
01-Sep-18 11:26 35.405339 -113.519357 258 29996ft 469kts
01-Sep-18 11:27 35.375755 -113.673218 257 30001ft 471kts
01-Sep-18 11:28 35.344928 -113.828989 257 30001ft 473kts
01-Sep-18 11:29 35.314273 -113.985412 257 30000ft 473kts
01-Sep-18 11:30 35.283523 -114.141317 257 29998ft 472kts
01-Sep-18 11:31 35.252440 -114.297230 257 29972ft 471kts
01-Sep-18 11:32 35.221166 -114.452651 257 29859ft 472kts
01-Sep-18 11:33 35.189996 -114.608473 257 29821ft 471kts
01-Sep-18 11:34 35.158263 -114.762703 257 29828ft 470kts
01-Sep-18 11:35 35.126509 -114.917523 257 29827ft 470kts
01-Sep-18 11:36 35.094812 -115.071666 257 29829ft 469kts
01-Sep-18 11:37 35.062986 -115.225054 256 29831ft 466kts
01-Sep-18 11:38 35.031045 -115.377405 256 29829ft 458kts
01-Sep-18 11:39 34.999911 -115.526082 257 29866ft 449kts
01-Sep-18 11:40 34.969367 -115.670215 257 29956ft 445kts
01-Sep-18 11:41 34.938161 -115.815519 258 29973ft 447kts
01-Sep-18 11:42 34.906726 -115.962209 259 29942ft 451kts
01-Sep-18 11:44 34.874503 -116.107342 258 28292ft 464kts
01-Sep-18 11:45 34.842262 -116.255324 257 25396ft 453kts
01-Sep-18 11:46 34.867070 -116.404889 289 23926ft 463kts
01-Sep-18 11:47 34.914817 -116.552743 286 23920ft 475kts
01-Sep-18 11:48 34.885736 -116.699805 229 23922ft 488kts
01-Sep-18 11:49 34.756339 -116.752230 183 23917ft 522kts
01-Sep-18 11:50 34.615560 -116.701174 176 23912ft 527kts
01-Sep-18 11:51 34.490260 -116.757345 232 23159ft 475kts
01-Sep-18 11:52 34.429929 -116.873856 234 21561ft 360kts
01-Sep-18 11:53 34.364694 -116.965905 231 19696ft 359kts
01-Sep-18 11:54 34.296689 -117.054168 230 17964ft 359kts
01-Sep-18 11:55 34.219145 -117.126184 192 15588ft 366kts
01-Sep-18 11:56 34.117341 -117.125229 180 14810ft 340kts
01-Sep-18 11:57 34.024007 -117.121128 180 14093ft 336kts
01-Sep-18 11:58 33.925312 -117.117471 180 12946ft 429kts
01-Sep-18 11:59 33.804764 -117.142591 219 11000ft 434kts
01-Sep-18 12:00 33.773693 -117.246894 277 10886ft 259kts
01-Sep-18 12:01 33.778493 -117.325641 274 8449ft 225kts
01-Sep-18 12:02 33.780654 -117.403434 273 8015ft 236kts
01-Sep-18 12:03 33.781711 -117.481216 272 8010ft 228kts
01-Sep-18 12:04 33.784000 -117.556448 291 8005ft 220kts
01-Sep-18 12:04 33.807277 -117.609368 299 6637ft 216kts
01-Sep-18 12:06 33.839361 -117.680519 289 4165ft 210kts
01-Sep-18 12:07 33.819962 -117.740630 239 3660ft 200kts
01-Sep-18 12:08 33.784089 -117.796628 223 2239ft 236kts
01-Sep-18 12:08 33.737949 -117.828872 208 1788ft 217kts
01-Sep-18 12:09 33.698173 -117.854607 207 524ft 128kts
01-Sep-18 12:10 33.672431 -117.870889 207 68ft 59kts
01-Sep-18 12:11 33.671928 -117.868212 27 68ft 26kts

Navigation Log

Ident Type
Flight plan parsing failed, navigation log unavailable